Αρχική σελίδα
METAR-TAF:

METAR-TAF

Αεροδρόμια :

Gove Peninsula, Αυστραλία

γεωγραφικό πλάτος: 12-16-12S, γεωγραφικό μήκος: 136-49-06E, υψόμετρο: 62 μ

Παρών καιρός

Η αναφορά έγινε 34 λεπτά πριν, στις 11:30 UTC
Άνεμος 9 kt από Α/NA
Θερμοκρασία 26°C
Υγρασία 84%
Πίεση 1013 hPa
Ορατότητα 10 χλμ και άνω
Διάσπαρτα νέφη σε ύψος 5200 πόδια

METAR: YPGV 251130Z AUTO 11009KT 9999 // SCT052 26/23 Q1013 RF00.0/000.0

Χρόνος: 21:34 (12:04 UTC)

Πρόγνωση Καιρού

Η αναφορά έγινε 4 ώρες και 55 λεπτά πριν, στις 07:09 UTC
Η πρόγνωση ισχύει από τις 25 στις 08 UTC έως τις 25 στις 20 UTC
Άνεμος 12 kt από Α/NA
Ορατότητα 10 χλμ και άνω
Διάσπαρτα νέφη σε ύψος 2500 πόδια
Από 25 στις 0900 UTC
Άνεμος 8 kt από ΝA
Ορατότητα 10 χλμ και άνω
Διάσπαρτα νέφη σε ύψος 1800 πόδια
Διάσπαρτα νέφη σε ύψος 5000 πόδια

TAF: YPGV 250709Z 2508/2520 12012KT 9999 SCT025 FM250900 13008KT 9999 SCT018 SCT050

Μετεωρολογικές αναφορές και προγνώσεις για περισσότερα από 4000 αεροδρόμια (δελτία METAR και TAF).

Οι διαθέσιμοι σταθμοί απεικονίζονται στο χάρτη με κίτρινες και κόκκινες κουκκίδες.

Μετακινήστε το ποντίκι πάνω από τις κουκκίδες για να δείτε το όνομα του σταθμού.

Στη συνέχεια, κάντε κλικ για να δείτε τις μετεωρολογικές αναφορές και τις προγνώσεις καιρού.

Για να αλλάξετε το χάρτη: κάντε κλικ στα πράσινα κουμπιά με τον μαύρο σταυρό για να ζουμάρετε, στο πράσινο κουμπί με την παύλα για να αφαιρέσετε το ζουμ ή στα πράσινα βέλη για να αντιπαραβάλλετε χάρτες.


METAR-TAF: